sensor_id;sensor_type;location;lat;lon;timestamp;P1;durP1;ratioP1;P2;durP2;ratioP2
36291;SDS011;22327;51.208;6.418;2023-05-17T00:02:55;6.30;;;3.58;;
36291;SDS011;22327;51.208;6.418;2023-05-17T00:05:55;5.85;;;3.60;;
36291;SDS011;22327;51.208;6.418;2023-05-17T00:08:56;5.85;;;3.45;;
36291;SDS011;22327;51.208;6.418;2023-05-17T00:11:56;7.28;;;3.60;;
36291;SDS011;22327;51.208;6.418;2023-05-17T00:14:57;6.38;;;3.33;;
36291;SDS011;22327;51.208;6.418;2023-05-17T00:17:57;7.97;;;3.80;;
36291;SDS011;22327;51.208;6.418;2023-05-17T00:20:58;6.55;;;3.83;;
36291;SDS011;22327;51.208;6.418;2023-05-17T00:23:58;7.25;;;3.78;;
36291;SDS011;22327;51.208;6.418;2023-05-17T00:26:59;8.23;;;5.10;;
36291;SDS011;22327;51.208;6.418;2023-05-17T00:29:59;10.20;;;4.00;;
36291;SDS011;22327;51.208;6.418;2023-05-17T00:33:00;6.70;;;4.35;;
36291;SDS011;22327;51.208;6.418;2023-05-17T00:36:00;9.15;;;4.30;;
36291;SDS011;22327;51.208;6.418;2023-05-17T00:39:01;8.27;;;4.25;;
36291;SDS011;22327;51.208;6.418;2023-05-17T00:42:01;10.52;;;5.00;;
36291;SDS011;22327;51.208;6.418;2023-05-17T00:45:03;8.93;;;4.40;;
36291;SDS011;22327;51.208;6.418;2023-05-17T00:48:04;10.48;;;4.57;;
36291;SDS011;22327;51.208;6.418;2023-05-17T00:51:04;9.23;;;4.78;;
36291;SDS011;22327;51.208;6.418;2023-05-17T00:54:05;9.05;;;4.10;;
36291;SDS011;22327;51.208;6.418;2023-05-17T00:57:06;12.85;;;4.80;;
36291;SDS011;22327;51.208;6.418;2023-05-17T01:00:07;11.10;;;4.38;;
36291;SDS011;22327;51.208;6.418;2023-05-17T01:03:08;11.15;;;4.85;;
36291;SDS011;22327;51.208;6.418;2023-05-17T01:06:09;9.40;;;4.55;;
36291;SDS011;22327;51.208;6.418;2023-05-17T01:09:09;14.98;;;5.80;;
36291;SDS011;22327;51.208;6.418;2023-05-17T01:12:14;12.63;;;4.57;;
36291;SDS011;22327;51.208;6.418;2023-05-17T01:15:28;11.38;;;5.03;;
36291;SDS011;22327;51.208;6.418;2023-05-17T01:28:20;13.35;;;5.63;;
36291;SDS011;22327;51.208;6.418;2023-05-17T01:31:22;12.15;;;5.43;;
36291;SDS011;22327;51.208;6.418;2023-05-17T01:34:24;11.80;;;5.32;;
36291;SDS011;22327;51.208;6.418;2023-05-17T01:37:28;11.20;;;5.90;;
36291;SDS011;22327;51.208;6.418;2023-05-17T01:40:29;11.05;;;5.97;;
36291;SDS011;22327;51.208;6.418;2023-05-17T01:43:37;11.75;;;6.38;;
36291;SDS011;22327;51.208;6.418;2023-05-17T01:46:54;13.85;;;6.18;;
36291;SDS011;22327;51.208;6.418;2023-05-17T01:50:17;18.05;;;6.78;;
36291;SDS011;22327;51.208;6.418;2023-05-17T01:53:32;14.05;;;7.40;;
36291;SDS011;22327;51.208;6.418;2023-05-17T01:56:40;11.85;;;7.20;;
36291;SDS011;22327;51.208;6.418;2023-05-17T01:59:44;13.20;;;7.15;;
36291;SDS011;22327;51.208;6.418;2023-05-17T02:02:46;15.52;;;7.60;;
36291;SDS011;22327;51.208;6.418;2023-05-17T02:05:47;14.90;;;7.57;;
36291;SDS011;22327;51.208;6.418;2023-05-17T02:08:47;24.55;;;8.65;;
36291;SDS011;22327;51.208;6.418;2023-05-17T02:11:48;17.50;;;8.32;;
36291;SDS011;22327;51.208;6.418;2023-05-17T02:14:48;21.33;;;8.48;;
36291;SDS011;22327;51.208;6.418;2023-05-17T02:17:49;20.15;;;8.55;;
36291;SDS011;22327;51.208;6.418;2023-05-17T02:20:49;17.52;;;8.10;;
36291;SDS011;22327;51.208;6.418;2023-05-17T02:23:50;22.45;;;8.73;;
36291;SDS011;22327;51.208;6.418;2023-05-17T02:26:53;15.75;;;8.02;;
36291;SDS011;22327;51.208;6.418;2023-05-17T02:29:55;20.65;;;9.40;;
36291;SDS011;22327;51.208;6.418;2023-05-17T02:32:56;25.60;;;9.57;;
36291;SDS011;22327;51.208;6.418;2023-05-17T02:35:56;21.25;;;9.55;;
36291;SDS011;22327;51.208;6.418;2023-05-17T02:38:57;19.98;;;9.52;;
36291;SDS011;22327;51.208;6.418;2023-05-17T02:41:58;24.60;;;10.10;;
36291;SDS011;22327;51.208;6.418;2023-05-17T02:44:58;21.90;;;10.10;;
36291;SDS011;22327;51.208;6.418;2023-05-17T02:47:59;21.67;;;9.70;;
36291;SDS011;22327;51.208;6.418;2023-05-17T02:50:59;20.42;;;9.35;;
36291;SDS011;22327;51.208;6.418;2023-05-17T02:54:00;23.42;;;9.45;;
36291;SDS011;22327;51.208;6.418;2023-05-17T02:57:00;21.33;;;9.52;;
36291;SDS011;22327;51.208;6.418;2023-05-17T03:00:02;23.05;;;9.65;;
36291;SDS011;22327;51.208;6.418;2023-05-17T03:03:03;27.90;;;11.23;;
36291;SDS011;22327;51.208;6.418;2023-05-17T03:06:03;22.17;;;10.38;;
36291;SDS011;22327;51.208;6.418;2023-05-17T03:09:04;23.55;;;9.85;;
36291;SDS011;22327;51.208;6.418;2023-05-17T03:12:06;22.40;;;9.75;;
36291;SDS011;22327;51.208;6.418;2023-05-17T03:15:07;23.15;;;10.48;;
36291;SDS011;22327;51.208;6.418;2023-05-17T03:18:08;25.40;;;10.38;;
36291;SDS011;22327;51.208;6.418;2023-05-17T03:21:08;23.38;;;10.70;;
36291;SDS011;22327;51.208;6.418;2023-05-17T03:24:09;27.52;;;11.98;;
36291;SDS011;22327;51.208;6.418;2023-05-17T03:27:10;29.73;;;11.55;;
36291;SDS011;22327;51.208;6.418;2023-05-17T03:30:10;30.40;;;11.00;;
36291;SDS011;22327;51.208;6.418;2023-05-17T03:33:11;24.92;;;11.05;;
36291;SDS011;22327;51.208;6.418;2023-05-17T03:36:11;25.05;;;11.30;;
36291;SDS011;22327;51.208;6.418;2023-05-17T03:39:12;24.20;;;11.05;;
36291;SDS011;22327;51.208;6.418;2023-05-17T03:42:12;24.10;;;10.38;;
36291;SDS011;22327;51.208;6.418;2023-05-17T03:45:14;28.33;;;10.95;;
36291;SDS011;22327;51.208;6.418;2023-05-17T03:48:15;28.27;;;10.82;;
36291;SDS011;22327;51.208;6.418;2023-05-17T03:51:15;27.45;;;11.45;;
36291;SDS011;22327;51.208;6.418;2023-05-17T03:54:16;27.08;;;11.38;;
36291;SDS011;22327;51.208;6.418;2023-05-17T03:57:17;29.27;;;10.88;;
36291;SDS011;22327;51.208;6.418;2023-05-17T04:00:18;24.83;;;10.48;;
36291;SDS011;22327;51.208;6.418;2023-05-17T04:03:22;28.48;;;12.45;;
36291;SDS011;22327;51.208;6.418;2023-05-17T04:06:23;25.00;;;10.65;;
36291;SDS011;22327;51.208;6.418;2023-05-17T04:09:23;21.63;;;10.50;;
36291;SDS011;22327;51.208;6.418;2023-05-17T04:12:24;23.85;;;10.20;;
36291;SDS011;22327;51.208;6.418;2023-05-17T04:15:25;25.77;;;10.63;;
36291;SDS011;22327;51.208;6.418;2023-05-17T04:18:25;22.33;;;9.35;;
36291;SDS011;22327;51.208;6.418;2023-05-17T04:21:26;18.73;;;9.68;;
36291;SDS011;22327;51.208;6.418;2023-05-17T04:24:29;23.40;;;9.50;;
36291;SDS011;22327;51.208;6.418;2023-05-17T04:27:30;22.98;;;10.27;;
36291;SDS011;22327;51.208;6.418;2023-05-17T04:30:30;19.25;;;8.13;;
36291;SDS011;22327;51.208;6.418;2023-05-17T04:33:31;19.10;;;8.98;;
36291;SDS011;22327;51.208;6.418;2023-05-17T04:36:31;17.73;;;7.72;;
36291;SDS011;22327;51.208;6.418;2023-05-17T04:39:32;20.80;;;8.68;;
36291;SDS011;22327;51.208;6.418;2023-05-17T04:42:33;14.65;;;7.65;;
36291;SDS011;22327;51.208;6.418;2023-05-17T04:45:34;19.70;;;7.50;;
36291;SDS011;22327;51.208;6.418;2023-05-17T04:48:34;14.98;;;7.63;;
36291;SDS011;22327;51.208;6.418;2023-05-17T04:51:35;18.70;;;8.95;;
36291;SDS011;22327;51.208;6.418;2023-05-17T04:54:36;11.18;;;6.22;;
36291;SDS011;22327;51.208;6.418;2023-05-17T04:57:36;11.10;;;5.03;;
36291;SDS011;22327;51.208;6.418;2023-05-17T05:00:37;11.07;;;5.00;;
36291;SDS011;22327;51.208;6.418;2023-05-17T05:03:37;10.75;;;5.18;;
36291;SDS011;22327;51.208;6.418;2023-05-17T05:06:38;12.57;;;5.85;;
36291;SDS011;22327;51.208;6.418;2023-05-17T05:09:39;11.18;;;5.40;;
36291;SDS011;22327;51.208;6.418;2023-05-17T05:12:40;14.90;;;5.00;;
36291;SDS011;22327;51.208;6.418;2023-05-17T05:15:40;11.77;;;5.32;;
36291;SDS011;22327;51.208;6.418;2023-05-17T05:18:41;10.88;;;5.10;;
36291;SDS011;22327;51.208;6.418;2023-05-17T05:21:43;16.35;;;5.22;;
36291;SDS011;22327;51.208;6.418;2023-05-17T05:24:47;10.27;;;5.13;;
36291;SDS011;22327;51.208;6.418;2023-05-17T05:27:47;14.43;;;5.13;;
36291;SDS011;22327;51.208;6.418;2023-05-17T05:30:48;14.38;;;4.93;;
36291;SDS011;22327;51.208;6.418;2023-05-17T05:33:48;13.88;;;5.10;;
36291;SDS011;22327;51.208;6.418;2023-05-17T05:36:49;6.55;;;3.70;;
36291;SDS011;22327;51.208;6.418;2023-05-17T05:39:50;12.90;;;5.28;;
36291;SDS011;22327;51.208;6.418;2023-05-17T05:42:51;12.07;;;5.32;;
36291;SDS011;22327;51.208;6.418;2023-05-17T05:45:51;15.23;;;5.07;;
36291;SDS011;22327;51.208;6.418;2023-05-17T05:48:52;10.32;;;4.75;;
36291;SDS011;22327;51.208;6.418;2023-05-17T05:51:53;13.50;;;5.22;;
36291;SDS011;22327;51.208;6.418;2023-05-17T05:54:53;10.57;;;5.00;;
36291;SDS011;22327;51.208;6.418;2023-05-17T05:57:54;11.50;;;4.30;;
36291;SDS011;22327;51.208;6.418;2023-05-17T06:00:54;11.38;;;5.65;;
36291;SDS011;22327;51.208;6.418;2023-05-17T06:03:56;14.70;;;5.88;;
36291;SDS011;22327;51.208;6.418;2023-05-17T06:06:56;14.15;;;5.22;;
36291;SDS011;22327;51.208;6.418;2023-05-17T06:09:57;8.75;;;4.45;;
36291;SDS011;22327;51.208;6.418;2023-05-17T06:12:57;13.80;;;4.88;;
36291;SDS011;22327;51.208;6.418;2023-05-17T06:15:58;7.60;;;3.75;;
36291;SDS011;22327;51.208;6.418;2023-05-17T06:18:59;11.75;;;4.43;;
36291;SDS011;22327;51.208;6.418;2023-05-17T06:21:59;9.75;;;3.90;;
36291;SDS011;22327;51.208;6.418;2023-05-17T06:25:00;9.48;;;3.72;;
36291;SDS011;22327;51.208;6.418;2023-05-17T06:28:01;10.27;;;3.20;;
36291;SDS011;22327;51.208;6.418;2023-05-17T06:31:02;8.50;;;3.05;;
36291;SDS011;22327;51.208;6.418;2023-05-17T06:34:03;12.40;;;3.38;;
36291;SDS011;22327;51.208;6.418;2023-05-17T06:37:04;9.40;;;3.05;;
36291;SDS011;22327;51.208;6.418;2023-05-17T06:40:05;9.45;;;3.08;;
36291;SDS011;22327;51.208;6.418;2023-05-17T06:43:07;10.93;;;3.08;;
36291;SDS011;22327;51.208;6.418;2023-05-17T06:46:08;6.60;;;2.45;;
36291;SDS011;22327;51.208;6.418;2023-05-17T06:49:08;6.65;;;2.47;;
36291;SDS011;22327;51.208;6.418;2023-05-17T06:52:09;8.63;;;2.22;;
36291;SDS011;22327;51.208;6.418;2023-05-17T06:55:09;5.55;;;2.55;;
36291;SDS011;22327;51.208;6.418;2023-05-17T06:58:10;7.15;;;2.45;;
36291;SDS011;22327;51.208;6.418;2023-05-17T07:01:11;7.03;;;1.90;;
36291;SDS011;22327;51.208;6.418;2023-05-17T07:04:12;5.90;;;1.77;;
36291;SDS011;22327;51.208;6.418;2023-05-17T07:07:12;4.90;;;1.80;;
36291;SDS011;22327;51.208;6.418;2023-05-17T07:10:13;7.47;;;2.20;;
36291;SDS011;22327;51.208;6.418;2023-05-17T07:13:13;7.95;;;2.10;;
36291;SDS011;22327;51.208;6.418;2023-05-17T07:16:14;7.15;;;2.22;;
36291;SDS011;22327;51.208;6.418;2023-05-17T07:19:15;7.40;;;2.13;;
36291;SDS011;22327;51.208;6.418;2023-05-17T07:22:16;7.32;;;2.13;;
36291;SDS011;22327;51.208;6.418;2023-05-17T07:25:17;5.50;;;1.88;;
36291;SDS011;22327;51.208;6.418;2023-05-17T07:28:19;6.10;;;1.93;;
36291;SDS011;22327;51.208;6.418;2023-05-17T07:31:20;5.80;;;2.05;;
36291;SDS011;22327;51.208;6.418;2023-05-17T07:34:20;2.90;;;1.45;;
36291;SDS011;22327;51.208;6.418;2023-05-17T07:37:21;3.88;;;1.83;;
36291;SDS011;22327;51.208;6.418;2023-05-17T07:40:22;5.30;;;1.80;;
36291;SDS011;22327;51.208;6.418;2023-05-17T07:43:22;8.20;;;2.15;;
36291;SDS011;22327;51.208;6.418;2023-05-17T07:46:23;6.47;;;1.73;;
36291;SDS011;22327;51.208;6.418;2023-05-17T07:49:25;5.65;;;1.70;;
36291;SDS011;22327;51.208;6.418;2023-05-17T07:52:26;3.47;;;1.10;;
36291;SDS011;22327;51.208;6.418;2023-05-17T07:55:26;4.95;;;1.38;;
36291;SDS011;22327;51.208;6.418;2023-05-17T07:58:27;6.63;;;1.63;;
36291;SDS011;22327;51.208;6.418;2023-05-17T08:01:27;5.28;;;1.15;;
36291;SDS011;22327;51.208;6.418;2023-05-17T08:04:28;4.97;;;1.08;;
36291;SDS011;22327;51.208;6.418;2023-05-17T08:07:28;6.00;;;2.00;;
36291;SDS011;22327;51.208;6.418;2023-05-17T08:10:29;7.15;;;1.35;;
36291;SDS011;22327;51.208;6.418;2023-05-17T08:13:29;3.63;;;1.45;;
36291;SDS011;22327;51.208;6.418;2023-05-17T08:16:30;5.28;;;1.50;;
36291;SDS011;22327;51.208;6.418;2023-05-17T08:19:30;5.93;;;2.10;;
36291;SDS011;22327;51.208;6.418;2023-05-17T08:22:31;7.55;;;1.88;;
36291;SDS011;22327;51.208;6.418;2023-05-17T08:25:31;6.72;;;1.30;;
36291;SDS011;22327;51.208;6.418;2023-05-17T08:28:32;4.57;;;1.50;;
36291;SDS011;22327;51.208;6.418;2023-05-17T08:31:32;4.43;;;0.93;;
36291;SDS011;22327;51.208;6.418;2023-05-17T08:34:33;5.40;;;1.67;;
36291;SDS011;22327;51.208;6.418;2023-05-17T08:37:34;6.45;;;1.27;;
36291;SDS011;22327;51.208;6.418;2023-05-17T08:40:34;5.90;;;1.58;;
36291;SDS011;22327;51.208;6.418;2023-05-17T08:43:35;3.47;;;1.00;;
36291;SDS011;22327;51.208;6.418;2023-05-17T08:46:36;4.47;;;1.30;;
36291;SDS011;22327;51.208;6.418;2023-05-17T08:49:38;5.18;;;1.23;;
36291;SDS011;22327;51.208;6.418;2023-05-17T08:52:43;5.90;;;1.30;;
36291;SDS011;22327;51.208;6.418;2023-05-17T08:58:52;4.10;;;1.52;;
36291;SDS011;22327;51.208;6.418;2023-05-17T09:01:55;6.68;;;1.40;;
36291;SDS011;22327;51.208;6.418;2023-05-17T09:04:55;4.03;;;1.50;;
36291;SDS011;22327;51.208;6.418;2023-05-17T09:07:57;5.13;;;1.40;;
36291;SDS011;22327;51.208;6.418;2023-05-17T09:10:58;5.97;;;1.45;;
36291;SDS011;22327;51.208;6.418;2023-05-17T09:13:59;7.25;;;1.42;;
36291;SDS011;22327;51.208;6.418;2023-05-17T09:17:01;3.78;;;1.30;;
36291;SDS011;22327;51.208;6.418;2023-05-17T09:20:01;5.07;;;1.30;;
36291;SDS011;22327;51.208;6.418;2023-05-17T09:23:02;5.18;;;1.30;;
36291;SDS011;22327;51.208;6.418;2023-05-17T09:26:04;4.18;;;1.13;;
36291;SDS011;22327;51.208;6.418;2023-05-17T09:29:07;6.60;;;1.50;;
36291;SDS011;22327;51.208;6.418;2023-05-17T09:35:13;5.50;;;1.15;;
36291;SDS011;22327;51.208;6.418;2023-05-17T09:38:13;4.78;;;1.40;;
36291;SDS011;22327;51.208;6.418;2023-05-17T09:41:15;5.05;;;1.30;;
36291;SDS011;22327;51.208;6.418;2023-05-17T09:44:15;3.20;;;1.30;;
36291;SDS011;22327;51.208;6.418;2023-05-17T09:50:23;5.68;;;1.52;;
36291;SDS011;22327;51.208;6.418;2023-05-17T09:56:28;4.50;;;1.45;;
36291;SDS011;22327;51.208;6.418;2023-05-17T09:59:29;4.72;;;1.13;;
36291;SDS011;22327;51.208;6.418;2023-05-17T10:02:30;5.28;;;1.35;;
36291;SDS011;22327;51.208;6.418;2023-05-17T10:05:33;4.90;;;1.48;;
36291;SDS011;22327;51.208;6.418;2023-05-17T10:08:36;4.13;;;1.60;;
36291;SDS011;22327;51.208;6.418;2023-05-17T10:11:37;4.32;;;1.55;;
36291;SDS011;22327;51.208;6.418;2023-05-17T10:14:40;6.65;;;3.03;;
36291;SDS011;22327;51.208;6.418;2023-05-17T10:17:42;7.43;;;2.33;;
36291;SDS011;22327;51.208;6.418;2023-05-17T10:20:43;6.18;;;1.98;;
36291;SDS011;22327;51.208;6.418;2023-05-17T10:23:46;5.78;;;2.28;;
36291;SDS011;22327;51.208;6.418;2023-05-17T10:26:51;7.28;;;1.40;;
36291;SDS011;22327;51.208;6.418;2023-05-17T10:29:52;6.60;;;1.70;;
36291;SDS011;22327;51.208;6.418;2023-05-17T10:32:54;9.15;;;1.98;;
36291;SDS011;22327;51.208;6.418;2023-05-17T10:35:55;3.67;;;1.48;;
36291;SDS011;22327;51.208;6.418;2023-05-17T10:38:57;4.68;;;1.40;;
36291;SDS011;22327;51.208;6.418;2023-05-17T10:41:58;10.05;;;2.55;;
36291;SDS011;22327;51.208;6.418;2023-05-17T10:45:01;6.22;;;2.03;;
36291;SDS011;22327;51.208;6.418;2023-05-17T10:48:06;6.80;;;2.25;;
36291;SDS011;22327;51.208;6.418;2023-05-17T10:51:07;6.85;;;1.90;;
36291;SDS011;22327;51.208;6.418;2023-05-17T10:54:09;9.10;;;2.03;;
36291;SDS011;22327;51.208;6.418;2023-05-17T10:57:21;3.70;;;1.60;;
36291;SDS011;22327;51.208;6.418;2023-05-17T11:00:38;5.63;;;2.15;;
36291;SDS011;22327;51.208;6.418;2023-05-17T11:03:40;3.97;;;1.73;;
36291;SDS011;22327;51.208;6.418;2023-05-17T11:06:41;4.40;;;1.40;;
36291;SDS011;22327;51.208;6.418;2023-05-17T11:09:42;7.25;;;2.17;;
36291;SDS011;22327;51.208;6.418;2023-05-17T11:12:48;7.35;;;1.58;;
36291;SDS011;22327;51.208;6.418;2023-05-17T11:16:03;6.55;;;2.58;;
36291;SDS011;22327;51.208;6.418;2023-05-17T11:19:09;8.75;;;2.15;;
36291;SDS011;22327;51.208;6.418;2023-05-17T11:22:10;6.15;;;1.50;;
36291;SDS011;22327;51.208;6.418;2023-05-17T11:25:15;6.78;;;1.60;;
36291;SDS011;22327;51.208;6.418;2023-05-17T11:28:18;4.70;;;1.60;;
36291;SDS011;22327;51.208;6.418;2023-05-17T11:31:27;3.28;;;1.50;;
36291;SDS011;22327;51.208;6.418;2023-05-17T11:34:31;2.42;;;1.33;;
36291;SDS011;22327;51.208;6.418;2023-05-17T11:37:32;6.00;;;1.60;;
36291;SDS011;22327;51.208;6.418;2023-05-17T11:40:33;5.07;;;1.20;;
36291;SDS011;22327;51.208;6.418;2023-05-17T11:43:34;4.68;;;1.40;;
36291;SDS011;22327;51.208;6.418;2023-05-17T11:46:34;5.78;;;1.27;;
36291;SDS011;22327;51.208;6.418;2023-05-17T11:49:38;5.75;;;1.42;;
36291;SDS011;22327;51.208;6.418;2023-05-17T11:52:39;4.78;;;1.65;;
36291;SDS011;22327;51.208;6.418;2023-05-17T11:55:46;3.15;;;1.02;;
36291;SDS011;22327;51.208;6.418;2023-05-17T11:58:52;4.05;;;1.25;;
36291;SDS011;22327;51.208;6.418;2023-05-17T12:04:55;2.95;;;0.90;;
36291;SDS011;22327;51.208;6.418;2023-05-17T12:07:56;3.38;;;1.38;;
36291;SDS011;22327;51.208;6.418;2023-05-17T12:10:57;4.10;;;1.23;;
36291;SDS011;22327;51.208;6.418;2023-05-17T12:13:57;4.95;;;1.50;;
36291;SDS011;22327;51.208;6.418;2023-05-17T12:16:59;3.40;;;1.45;;
36291;SDS011;22327;51.208;6.418;2023-05-17T12:20:07;4.05;;;1.80;;
36291;SDS011;22327;51.208;6.418;2023-05-17T12:23:09;3.60;;;1.52;;
36291;SDS011;22327;51.208;6.418;2023-05-17T12:26:10;4.07;;;1.27;;
36291;SDS011;22327;51.208;6.418;2023-05-17T12:29:12;4.22;;;1.63;;
36291;SDS011;22327;51.208;6.418;2023-05-17T12:32:13;3.40;;;1.10;;
36291;SDS011;22327;51.208;6.418;2023-05-17T12:35:14;4.93;;;1.38;;
36291;SDS011;22327;51.208;6.418;2023-05-17T12:38:15;4.80;;;1.30;;
36291;SDS011;22327;51.208;6.418;2023-05-17T12:41:16;4.80;;;1.30;;
36291;SDS011;22327;51.208;6.418;2023-05-17T12:44:18;2.67;;;1.45;;
36291;SDS011;22327;51.208;6.418;2023-05-17T12:47:19;4.95;;;1.10;;
36291;SDS011;22327;51.208;6.418;2023-05-17T12:50:29;3.10;;;1.05;;
36291;SDS011;22327;51.208;6.418;2023-05-17T12:53:33;4.35;;;1.10;;
36291;SDS011;22327;51.208;6.418;2023-05-17T12:56:41;5.00;;;1.48;;
36291;SDS011;22327;51.208;6.418;2023-05-17T12:59:51;2.78;;;1.50;;
36291;SDS011;22327;51.208;6.418;2023-05-17T13:02:52;3.78;;;2.05;;
36291;SDS011;22327;51.208;6.418;2023-05-17T13:06:03;5.32;;;1.55;;
36291;SDS011;22327;51.208;6.418;2023-05-17T13:09:05;3.17;;;1.27;;
36291;SDS011;22327;51.208;6.418;2023-05-17T13:12:06;5.28;;;1.50;;
36291;SDS011;22327;51.208;6.418;2023-05-17T13:15:08;4.90;;;1.80;;
36291;SDS011;22327;51.208;6.418;2023-05-17T13:18:12;4.82;;;1.42;;
36291;SDS011;22327;51.208;6.418;2023-05-17T13:21:15;1.85;;;1.13;;
36291;SDS011;22327;51.208;6.418;2023-05-17T13:24:16;4.00;;;1.40;;
36291;SDS011;22327;51.208;6.418;2023-05-17T13:27:17;3.95;;;1.20;;
36291;SDS011;22327;51.208;6.418;2023-05-17T13:30:17;3.85;;;1.50;;
36291;SDS011;22327;51.208;6.418;2023-05-17T13:33:18;4.93;;;1.35;;
36291;SDS011;22327;51.208;6.418;2023-05-17T13:36:18;7.28;;;1.95;;
36291;SDS011;22327;51.208;6.418;2023-05-17T13:39:19;2.97;;;1.17;;
36291;SDS011;22327;51.208;6.418;2023-05-17T13:42:20;4.70;;;1.42;;
36291;SDS011;22327;51.208;6.418;2023-05-17T13:45:21;6.07;;;1.30;;
36291;SDS011;22327;51.208;6.418;2023-05-17T13:48:22;4.38;;;1.50;;
36291;SDS011;22327;51.208;6.418;2023-05-17T13:51:23;4.18;;;1.02;;
36291;SDS011;22327;51.208;6.418;2023-05-17T13:54:24;3.75;;;1.30;;
36291;SDS011;22327;51.208;6.418;2023-05-17T13:57:25;4.90;;;1.58;;
36291;SDS011;22327;51.208;6.418;2023-05-17T14:00:25;5.13;;;1.88;;
36291;SDS011;22327;51.208;6.418;2023-05-17T14:03:26;5.43;;;1.00;;
36291;SDS011;22327;51.208;6.418;2023-05-17T14:06:26;5.65;;;1.48;;
36291;SDS011;22327;51.208;6.418;2023-05-17T14:09:27;3.58;;;1.13;;
36291;SDS011;22327;51.208;6.418;2023-05-17T14:12:31;5.30;;;1.90;;
36291;SDS011;22327;51.208;6.418;2023-05-17T14:15:32;3.47;;;1.67;;
36291;SDS011;22327;51.208;6.418;2023-05-17T14:18:36;3.47;;;1.20;;
36291;SDS011;22327;51.208;6.418;2023-05-17T14:21:37;3.50;;;1.30;;
36291;SDS011;22327;51.208;6.418;2023-05-17T14:24:37;3.08;;;1.40;;
36291;SDS011;22327;51.208;6.418;2023-05-17T14:27:38;2.78;;;1.35;;
36291;SDS011;22327;51.208;6.418;2023-05-17T14:30:38;5.07;;;1.40;;
36291;SDS011;22327;51.208;6.418;2023-05-17T14:33:39;5.82;;;1.10;;
36291;SDS011;22327;51.208;6.418;2023-05-17T14:36:40;3.97;;;1.30;;
36291;SDS011;22327;51.208;6.418;2023-05-17T14:39:41;4.88;;;1.27;;
36291;SDS011;22327;51.208;6.418;2023-05-17T14:42:41;6.07;;;1.50;;
36291;SDS011;22327;51.208;6.418;2023-05-17T14:45:42;4.50;;;1.48;;
36291;SDS011;22327;51.208;6.418;2023-05-17T14:48:42;1.98;;;1.35;;
36291;SDS011;22327;51.208;6.418;2023-05-17T14:51:43;3.50;;;1.55;;
36291;SDS011;22327;51.208;6.418;2023-05-17T14:54:43;4.05;;;1.13;;
36291;SDS011;22327;51.208;6.418;2023-05-17T14:57:44;4.78;;;1.05;;
36291;SDS011;22327;51.208;6.418;2023-05-17T15:00:45;7.15;;;1.50;;
36291;SDS011;22327;51.208;6.418;2023-05-17T15:03:46;4.68;;;1.33;;
36291;SDS011;22327;51.208;6.418;2023-05-17T15:06:47;3.90;;;1.48;;
36291;SDS011;22327;51.208;6.418;2023-05-17T15:09:48;4.55;;;1.48;;
36291;SDS011;22327;51.208;6.418;2023-05-17T15:12:49;4.88;;;1.45;;
36291;SDS011;22327;51.208;6.418;2023-05-17T15:15:49;3.03;;;1.30;;
36291;SDS011;22327;51.208;6.418;2023-05-17T15:18:51;4.63;;;1.33;;
36291;SDS011;22327;51.208;6.418;2023-05-17T15:21:52;3.10;;;1.10;;
36291;SDS011;22327;51.208;6.418;2023-05-17T15:24:52;5.45;;;1.40;;
36291;SDS011;22327;51.208;6.418;2023-05-17T15:27:53;4.65;;;1.30;;
36291;SDS011;22327;51.208;6.418;2023-05-17T15:31:02;8.38;;;1.65;;
36291;SDS011;22327;51.208;6.418;2023-05-17T15:34:09;3.38;;;1.25;;
36291;SDS011;22327;51.208;6.418;2023-05-17T15:37:10;6.90;;;1.98;;
36291;SDS011;22327;51.208;6.418;2023-05-17T15:40:10;5.20;;;1.65;;
36291;SDS011;22327;51.208;6.418;2023-05-17T15:43:11;5.55;;;1.65;;
36291;SDS011;22327;51.208;6.418;2023-05-17T15:46:12;2.53;;;1.40;;
36291;SDS011;22327;51.208;6.418;2023-05-17T15:49:12;9.13;;;2.13;;
36291;SDS011;22327;51.208;6.418;2023-05-17T15:52:13;6.18;;;2.42;;
36291;SDS011;22327;51.208;6.418;2023-05-17T15:55:13;3.20;;;1.50;;
36291;SDS011;22327;51.208;6.418;2023-05-17T15:58:14;3.60;;;1.63;;
36291;SDS011;22327;51.208;6.418;2023-05-17T16:01:16;4.45;;;1.50;;
36291;SDS011;22327;51.208;6.418;2023-05-17T16:04:16;4.47;;;1.92;;
36291;SDS011;22327;51.208;6.418;2023-05-17T16:07:17;8.38;;;2.30;;
36291;SDS011;22327;51.208;6.418;2023-05-17T16:10:18;4.82;;;1.27;;
36291;SDS011;22327;51.208;6.418;2023-05-17T16:13:18;3.88;;;1.60;;
36291;SDS011;22327;51.208;6.418;2023-05-17T16:16:19;4.90;;;1.95;;
36291;SDS011;22327;51.208;6.418;2023-05-17T16:19:20;5.22;;;1.77;;
36291;SDS011;22327;51.208;6.418;2023-05-17T16:22:20;5.07;;;1.60;;
36291;SDS011;22327;51.208;6.418;2023-05-17T16:25:21;3.50;;;2.03;;
36291;SDS011;22327;51.208;6.418;2023-05-17T16:28:23;4.28;;;1.48;;
36291;SDS011;22327;51.208;6.418;2023-05-17T16:31:23;4.80;;;1.65;;
36291;SDS011;22327;51.208;6.418;2023-05-17T16:34:24;5.00;;;1.60;;
36291;SDS011;22327;51.208;6.418;2023-05-17T16:37:27;5.82;;;1.42;;
36291;SDS011;22327;51.208;6.418;2023-05-17T16:40:27;5.95;;;2.00;;
36291;SDS011;22327;51.208;6.418;2023-05-17T16:43:28;5.70;;;1.75;;
36291;SDS011;22327;51.208;6.418;2023-05-17T16:46:29;5.15;;;1.67;;
36291;SDS011;22327;51.208;6.418;2023-05-17T16:49:30;6.32;;;1.88;;
36291;SDS011;22327;51.208;6.418;2023-05-17T16:52:31;7.40;;;1.73;;
36291;SDS011;22327;51.208;6.418;2023-05-17T16:55:31;6.00;;;1.60;;
36291;SDS011;22327;51.208;6.418;2023-05-17T16:58:32;6.78;;;1.65;;
36291;SDS011;22327;51.208;6.418;2023-05-17T17:01:33;4.38;;;1.58;;
36291;SDS011;22327;51.208;6.418;2023-05-17T17:04:33;5.03;;;1.63;;
36291;SDS011;22327;51.208;6.418;2023-05-17T17:07:34;6.40;;;2.17;;
36291;SDS011;22327;51.208;6.418;2023-05-17T17:10:35;5.85;;;1.42;;
36291;SDS011;22327;51.208;6.418;2023-05-17T17:13:35;6.22;;;1.50;;
36291;SDS011;22327;51.208;6.418;2023-05-17T17:16:36;5.03;;;1.63;;
36291;SDS011;22327;51.208;6.418;2023-05-17T17:19:37;4.72;;;1.55;;
36291;SDS011;22327;51.208;6.418;2023-05-17T17:22:38;6.50;;;2.03;;
36291;SDS011;22327;51.208;6.418;2023-05-17T17:25:39;5.70;;;1.83;;
36291;SDS011;22327;51.208;6.418;2023-05-17T17:28:39;5.60;;;1.50;;
36291;SDS011;22327;51.208;6.418;2023-05-17T17:31:40;5.57;;;1.83;;
36291;SDS011;22327;51.208;6.418;2023-05-17T17:34:40;6.72;;;1.35;;
36291;SDS011;22327;51.208;6.418;2023-05-17T17:37:41;7.00;;;1.83;;
36291;SDS011;22327;51.208;6.418;2023-05-17T17:40:42;7.63;;;1.75;;
36291;SDS011;22327;51.208;6.418;2023-05-17T17:43:42;9.57;;;2.60;;
36291;SDS011;22327;51.208;6.418;2023-05-17T17:46:45;4.53;;;1.60;;
36291;SDS011;22327;51.208;6.418;2023-05-17T17:49:46;3.47;;;1.42;;
36291;SDS011;22327;51.208;6.418;2023-05-17T17:52:46;6.30;;;1.23;;
36291;SDS011;22327;51.208;6.418;2023-05-17T17:55:48;5.00;;;1.60;;
36291;SDS011;22327;51.208;6.418;2023-05-17T17:58:48;6.85;;;1.73;;
36291;SDS011;22327;51.208;6.418;2023-05-17T18:01:49;6.43;;;1.55;;
36291;SDS011;22327;51.208;6.418;2023-05-17T18:04:49;5.97;;;1.65;;
36291;SDS011;22327;51.208;6.418;2023-05-17T18:07:50;8.32;;;1.50;;
36291;SDS011;22327;51.208;6.418;2023-05-17T18:10:51;6.38;;;1.50;;
36291;SDS011;22327;51.208;6.418;2023-05-17T18:13:52;5.38;;;1.70;;
36291;SDS011;22327;51.208;6.418;2023-05-17T18:16:53;5.00;;;1.50;;
36291;SDS011;22327;51.208;6.418;2023-05-17T18:19:54;7.38;;;1.70;;
36291;SDS011;22327;51.208;6.418;2023-05-17T18:22:54;7.50;;;1.30;;
36291;SDS011;22327;51.208;6.418;2023-05-17T18:25:55;4.07;;;1.17;;
36291;SDS011;22327;51.208;6.418;2023-05-17T18:28:56;10.13;;;1.92;;
36291;SDS011;22327;51.208;6.418;2023-05-17T18:31:56;6.07;;;1.27;;
36291;SDS011;22327;51.208;6.418;2023-05-17T18:34:58;6.93;;;1.40;;